sensor_id;sensor_type;location;lat;lon;timestamp;pressure;altitude;pressure_sealevel;temperature;humidity
79703;BME280;69172;52.352;5.006;2023-08-06T00:01:28;100506.16;;;15.50;100.00
79703;BME280;69172;52.352;5.006;2023-08-06T00:03:54;100511.41;;;15.52;100.00
79703;BME280;69172;52.352;5.006;2023-08-06T00:06:19;100497.34;;;15.45;100.00
79703;BME280;69172;52.352;5.006;2023-08-06T00:08:45;100503.66;;;15.53;100.00
79703;BME280;69172;52.352;5.006;2023-08-06T00:11:10;100497.81;;;15.60;100.00
79703;BME280;69172;52.352;5.006;2023-08-06T00:13:35;100505.09;;;15.72;100.00
79703;BME280;69172;52.352;5.006;2023-08-06T00:16:13;100499.78;;;15.67;100.00
79703;BME280;69172;52.352;5.006;2023-08-06T00:18:39;100498.00;;;15.66;100.00
79703;BME280;69172;52.352;5.006;2023-08-06T00:21:05;100499.69;;;15.64;100.00
79703;BME280;69172;52.352;5.006;2023-08-06T00:23:31;100497.03;;;15.63;100.00
79703;BME280;69172;52.352;5.006;2023-08-06T00:25:56;100502.16;;;15.60;100.00
79703;BME280;69172;52.352;5.006;2023-08-06T00:28:21;100498.59;;;15.58;100.00
79703;BME280;69172;52.352;5.006;2023-08-06T00:30:53;100499.50;;;15.58;100.00
79703;BME280;69172;52.352;5.006;2023-08-06T00:33:19;100496.09;;;15.61;100.00
79703;BME280;69172;52.352;5.006;2023-08-06T00:35:44;100501.25;;;15.59;100.00
79703;BME280;69172;52.352;5.006;2023-08-06T00:38:09;100501.09;;;15.55;100.00
79703;BME280;69172;52.352;5.006;2023-08-06T00:40:35;100510.75;;;15.59;100.00
79703;BME280;69172;52.352;5.006;2023-08-06T00:43:00;100498.75;;;15.62;100.00
79703;BME280;69172;52.352;5.006;2023-08-06T00:45:26;100491.50;;;15.51;100.00
79703;BME280;69172;52.352;5.006;2023-08-06T00:47:55;100499.41;;;15.55;100.00
79703;BME280;69172;52.352;5.006;2023-08-06T00:50:21;100479.16;;;15.43;100.00
79703;BME280;69172;52.352;5.006;2023-08-06T00:52:51;100488.16;;;15.55;100.00
79703;BME280;69172;52.352;5.006;2023-08-06T00:55:17;100494.06;;;15.49;100.00
79703;BME280;69172;52.352;5.006;2023-08-06T00:57:42;100501.88;;;15.52;100.00
79703;BME280;69172;52.352;5.006;2023-08-06T01:00:08;100494.00;;;15.47;100.00
79703;BME280;69172;52.352;5.006;2023-08-06T01:02:37;100486.84;;;15.40;100.00
79703;BME280;69172;52.352;5.006;2023-08-06T01:05:03;100489.53;;;15.43;100.00
79703;BME280;69172;52.352;5.006;2023-08-06T01:15:35;100494.66;;;15.42;100.00
79703;BME280;69172;52.352;5.006;2023-08-06T01:18:03;100487.69;;;15.41;100.00
79703;BME280;69172;52.352;5.006;2023-08-06T01:20:29;100491.97;;;15.39;100.00
79703;BME280;69172;52.352;5.006;2023-08-06T01:22:55;100500.06;;;15.48;100.00
79703;BME280;69172;52.352;5.006;2023-08-06T01:25:21;100500.94;;;15.48;100.00
79703;BME280;69172;52.352;5.006;2023-08-06T01:27:52;100498.22;;;15.45;100.00
79703;BME280;69172;52.352;5.006;2023-08-06T01:30:31;100500.81;;;15.45;100.00
79703;BME280;69172;52.352;5.006;2023-08-06T01:33:04;100498.13;;;15.42;100.00
79703;BME280;69172;52.352;5.006;2023-08-06T01:35:32;100493.59;;;15.35;100.00
79703;BME280;69172;52.352;5.006;2023-08-06T01:37:59;100499.63;;;15.36;100.00
79703;BME280;69172;52.352;5.006;2023-08-06T01:40:25;100503.09;;;15.36;100.00
79703;BME280;69172;52.352;5.006;2023-08-06T01:42:52;100484.50;;;15.21;100.00
79703;BME280;69172;52.352;5.006;2023-08-06T01:45:17;100487.09;;;15.21;100.00
79703;BME280;69172;52.352;5.006;2023-08-06T01:47:43;100493.31;;;15.26;100.00
79703;BME280;69172;52.352;5.006;2023-08-06T01:50:09;100505.59;;;15.33;100.00
79703;BME280;69172;52.352;5.006;2023-08-06T01:52:34;100488.91;;;15.24;100.00
79703;BME280;69172;52.352;5.006;2023-08-06T01:54:59;100483.72;;;15.24;100.00
79703;BME280;69172;52.352;5.006;2023-08-06T01:57:25;100504.72;;;15.33;100.00
79703;BME280;69172;52.352;5.006;2023-08-06T01:59:50;100487.13;;;15.23;100.00
79703;BME280;69172;52.352;5.006;2023-08-06T02:02:16;100503.22;;;15.39;100.00
79703;BME280;69172;52.352;5.006;2023-08-06T02:04:41;100503.19;;;15.38;100.00
79703;BME280;69172;52.352;5.006;2023-08-06T02:07:07;100480.25;;;15.23;100.00
79703;BME280;69172;52.352;5.006;2023-08-06T02:09:32;100495.25;;;15.33;100.00
79703;BME280;69172;52.352;5.006;2023-08-06T02:11:58;100502.28;;;15.37;100.00
79703;BME280;69172;52.352;5.006;2023-08-06T02:14:23;100510.16;;;15.40;100.00
79703;BME280;69172;52.352;5.006;2023-08-06T02:16:48;100490.06;;;15.33;100.00
79703;BME280;69172;52.352;5.006;2023-08-06T02:19:15;100496.09;;;15.32;100.00
79703;BME280;69172;52.352;5.006;2023-08-06T02:21:40;100499.50;;;15.31;100.00
79703;BME280;69172;52.352;5.006;2023-08-06T02:24:05;100503.00;;;15.33;100.00
79703;BME280;69172;52.352;5.006;2023-08-06T02:26:31;100512.59;;;15.36;100.00
79703;BME280;69172;52.352;5.006;2023-08-06T02:28:56;100494.13;;;15.25;100.00
79703;BME280;69172;52.352;5.006;2023-08-06T02:31:22;100496.88;;;15.30;100.00
79703;BME280;69172;52.352;5.006;2023-08-06T02:33:47;100486.44;;;15.28;100.00
79703;BME280;69172;52.352;5.006;2023-08-06T02:36:12;100497.94;;;15.36;100.00
79703;BME280;69172;52.352;5.006;2023-08-06T02:38:38;100506.69;;;15.40;100.00
79703;BME280;69172;52.352;5.006;2023-08-06T02:41:05;100491.63;;;15.28;100.00
79703;BME280;69172;52.352;5.006;2023-08-06T02:43:30;100490.94;;;15.34;100.00
79703;BME280;69172;52.352;5.006;2023-08-06T02:46:00;100504.97;;;15.40;100.00
79703;BME280;69172;52.352;5.006;2023-08-06T02:48:25;100492.56;;;15.30;100.00
79703;BME280;69172;52.352;5.006;2023-08-06T02:50:51;100476.91;;;15.27;100.00
79703;BME280;69172;52.352;5.006;2023-08-06T02:53:16;100492.75;;;15.36;100.00
79703;BME280;69172;52.352;5.006;2023-08-06T02:55:48;100494.34;;;15.33;100.00
79703;BME280;69172;52.352;5.006;2023-08-06T02:58:14;100482.25;;;15.32;100.00
79703;BME280;69172;52.352;5.006;2023-08-06T03:00:40;100503.22;;;15.39;100.00
79703;BME280;69172;52.352;5.006;2023-08-06T03:03:06;100487.56;;;15.36;100.00
79703;BME280;69172;52.352;5.006;2023-08-06T03:05:31;100501.44;;;15.38;100.00
79703;BME280;69172;52.352;5.006;2023-08-06T03:07:56;100494.56;;;15.39;100.00
79703;BME280;69172;52.352;5.006;2023-08-06T03:10:22;100495.44;;;15.39;100.00
79703;BME280;69172;52.352;5.006;2023-08-06T03:12:47;100478.78;;;15.31;100.00
79703;BME280;69172;52.352;5.006;2023-08-06T03:15:13;100476.88;;;15.26;100.00
79703;BME280;69172;52.352;5.006;2023-08-06T03:17:38;100491.81;;;15.34;100.00
79703;BME280;69172;52.352;5.006;2023-08-06T03:20:04;100481.13;;;15.24;100.00
79703;BME280;69172;52.352;5.006;2023-08-06T03:22:30;100489.09;;;15.30;100.00
79703;BME280;69172;52.352;5.006;2023-08-06T03:24:55;100482.09;;;15.27;100.00
79703;BME280;69172;52.352;5.006;2023-08-06T03:27:21;100502.19;;;15.34;100.00
79703;BME280;69172;52.352;5.006;2023-08-06T03:29:49;100499.63;;;15.36;100.00
79703;BME280;69172;52.352;5.006;2023-08-06T03:32:15;100483.13;;;15.32;100.00
79703;BME280;69172;52.352;5.006;2023-08-06T03:34:40;100498.03;;;15.39;100.00
79703;BME280;69172;52.352;5.006;2023-08-06T03:37:06;100487.56;;;15.36;100.00
79703;BME280;69172;52.352;5.006;2023-08-06T03:39:31;100497.22;;;15.40;100.00
79703;BME280;69172;52.352;5.006;2023-08-06T03:41:56;100492.84;;;15.39;100.00
79703;BME280;69172;52.352;5.006;2023-08-06T03:44:21;100492.72;;;15.35;100.00
79703;BME280;69172;52.352;5.006;2023-08-06T03:46:47;100490.16;;;15.36;100.00
79703;BME280;69172;52.352;5.006;2023-08-06T03:49:12;100490.13;;;15.35;100.00
79703;BME280;69172;52.352;5.006;2023-08-06T03:51:38;100497.31;;;15.43;100.00
79703;BME280;69172;52.352;5.006;2023-08-06T03:54:03;100503.31;;;15.42;100.00
79703;BME280;69172;52.352;5.006;2023-08-06T03:56:28;100502.41;;;15.42;100.00
79703;BME280;69172;52.352;5.006;2023-08-06T03:58:54;100504.88;;;15.37;100.00
79703;BME280;69172;52.352;5.006;2023-08-06T04:01:19;100499.69;;;15.37;100.00
79703;BME280;69172;52.352;5.006;2023-08-06T04:03:45;100501.44;;;15.38;100.00
79703;BME280;69172;52.352;5.006;2023-08-06T04:06:10;100491.75;;;15.33;100.00
79703;BME280;69172;52.352;5.006;2023-08-06T04:08:36;100503.22;;;15.39;100.00
79703;BME280;69172;52.352;5.006;2023-08-06T04:11:02;100500.50;;;15.35;100.00
79703;BME280;69172;52.352;5.006;2023-08-06T04:13:27;100501.38;;;15.35;100.00
79703;BME280;69172;52.352;5.006;2023-08-06T04:15:52;100508.50;;;15.42;100.00
79703;BME280;69172;52.352;5.006;2023-08-06T04:18:18;100487.38;;;15.30;100.00
79703;BME280;69172;52.352;5.006;2023-08-06T04:20:47;100512.75;;;15.40;100.00
79703;BME280;69172;52.352;5.006;2023-08-06T04:23:15;100504.19;;;15.43;100.00
79703;BME280;69172;52.352;5.006;2023-08-06T04:25:41;100513.84;;;15.47;100.00
79703;BME280;69172;52.352;5.006;2023-08-06T04:28:07;100513.66;;;15.42;100.00
79703;BME280;69172;52.352;5.006;2023-08-06T04:30:34;100500.41;;;15.33;100.00
79703;BME280;69172;52.352;5.006;2023-08-06T04:33:02;100509.19;;;15.37;100.00
79703;BME280;69172;52.352;5.006;2023-08-06T04:35:27;100500.38;;;15.32;100.00
79703;BME280;69172;52.352;5.006;2023-08-06T04:37:54;100510.16;;;15.40;100.00
79703;BME280;69172;52.352;5.006;2023-08-06T04:40:20;100530.09;;;15.43;100.00
79703;BME280;69172;52.352;5.006;2023-08-06T04:42:45;100527.75;;;15.49;100.00
79703;BME280;69172;52.352;5.006;2023-08-06T04:45:11;100525.81;;;15.43;100.00
79703;BME280;69172;52.352;5.006;2023-08-06T04:47:36;100529.50;;;15.25;100.00
79703;BME280;69172;52.352;5.006;2023-08-06T04:50:02;100519.16;;;14.98;100.00
79703;BME280;69172;52.352;5.006;2023-08-06T04:52:27;100540.88;;;15.03;100.00
79703;BME280;69172;52.352;5.006;2023-08-06T04:54:56;100528.47;;;14.93;100.00
79703;BME280;69172;52.352;5.006;2023-08-06T04:57:22;100540.03;;;15.03;100.00
79703;BME280;69172;52.352;5.006;2023-08-06T04:59:47;100536.50;;;15.01;100.00
79703;BME280;69172;52.352;5.006;2023-08-06T05:02:13;100528.44;;;14.92;100.00
79703;BME280;69172;52.352;5.006;2023-08-06T05:04:38;100536.44;;;14.99;100.00
79703;BME280;69172;52.352;5.006;2023-08-06T05:07:05;100542.22;;;14.90;100.00
79703;BME280;69172;52.352;5.006;2023-08-06T05:09:31;100541.06;;;14.82;100.00
79703;BME280;69172;52.352;5.006;2023-08-06T05:11:56;100541.03;;;14.81;100.00
79703;BME280;69172;52.352;5.006;2023-08-06T05:14:22;100547.03;;;14.80;100.00
79703;BME280;69172;52.352;5.006;2023-08-06T05:16:47;100553.09;;;14.80;100.00
79703;BME280;69172;52.352;5.006;2023-08-06T05:19:13;100552.34;;;14.84;100.00
79703;BME280;69172;52.352;5.006;2023-08-06T05:21:38;100555.50;;;14.76;100.00
79703;BME280;69172;52.352;5.006;2023-08-06T05:24:04;100552.00;;;14.74;100.00
79703;BME280;69172;52.352;5.006;2023-08-06T05:26:30;100556.09;;;14.67;100.00
79703;BME280;69172;52.352;5.006;2023-08-06T05:28:57;100556.94;;;14.68;100.00
79703;BME280;69172;52.352;5.006;2023-08-06T05:31:22;100566.25;;;14.63;100.00
79703;BME280;69172;52.352;5.006;2023-08-06T05:33:53;100560.38;;;14.43;100.00
79703;BME280;69172;52.352;5.006;2023-08-06T05:36:19;100562.69;;;14.36;100.00
79703;BME280;69172;52.352;5.006;2023-08-06T05:38:44;100569.53;;;14.34;100.00
79703;BME280;69172;52.352;5.006;2023-08-06T05:41:09;100577.91;;;14.28;100.00
79703;BME280;69172;52.352;5.006;2023-08-06T05:43:35;100578.47;;;14.19;100.00
79703;BME280;69172;52.352;5.006;2023-08-06T05:46:00;100594.97;;;14.23;100.00
79703;BME280;69172;52.352;5.006;2023-08-06T05:48:26;100577.53;;;14.17;100.00
79703;BME280;69172;52.352;5.006;2023-08-06T05:50:53;100601.03;;;14.23;100.00
79703;BME280;69172;52.352;5.006;2023-08-06T05:53:18;100602.59;;;14.18;100.00
79703;BME280;69172;52.352;5.006;2023-08-06T05:55:44;100595.63;;;14.17;100.00
79703;BME280;69172;52.352;5.006;2023-08-06T05:58:10;100612.44;;;14.28;100.00
79703;BME280;69172;52.352;5.006;2023-08-06T06:00:35;100601.69;;;14.18;100.00
79703;BME280;69172;52.352;5.006;2023-08-06T06:03:01;100613.00;;;14.21;100.00
79703;BME280;69172;52.352;5.006;2023-08-06T06:05:27;100608.34;;;14.11;100.00
79703;BME280;69172;52.352;5.006;2023-08-06T06:07:53;100624.97;;;14.18;100.00
79703;BME280;69172;52.352;5.006;2023-08-06T06:10:18;100623.69;;;14.07;100.00
79703;BME280;69172;52.352;5.006;2023-08-06T06:12:44;100638.47;;;14.11;100.00
79703;BME280;69172;52.352;5.006;2023-08-06T06:15:09;100625.16;;;14.00;100.00
79703;BME280;69172;52.352;5.006;2023-08-06T06:17:35;100628.50;;;13.98;100.00
79703;BME280;69172;52.352;5.006;2023-08-06T06:20:00;100630.31;;;14.00;100.00
79703;BME280;69172;52.352;5.006;2023-08-06T06:22:26;100633.53;;;13.95;100.00
79703;BME280;69172;52.352;5.006;2023-08-06T06:24:51;100640.41;;;13.94;100.00
79703;BME280;69172;52.352;5.006;2023-08-06T06:27:16;100641.31;;;13.95;100.00
79703;BME280;69172;52.352;5.006;2023-08-06T06:29:42;100631.81;;;13.94;100.00
79703;BME280;69172;52.352;5.006;2023-08-06T06:32:08;100635.16;;;13.91;100.00
79703;BME280;69172;52.352;5.006;2023-08-06T06:34:34;100635.84;;;13.87;100.00
79703;BME280;69172;52.352;5.006;2023-08-06T06:37:00;100642.84;;;13.90;100.00
79703;BME280;69172;52.352;5.006;2023-08-06T06:39:25;100650.16;;;13.79;100.00
79703;BME280;69172;52.352;5.006;2023-08-06T06:41:51;100648.31;;;13.75;100.00
79703;BME280;69172;52.352;5.006;2023-08-06T06:44:17;100656.16;;;13.78;100.00
79703;BME280;69172;52.352;5.006;2023-08-06T06:46:42;100650.16;;;13.79;100.00
79703;BME280;69172;52.352;5.006;2023-08-06T06:49:08;100650.81;;;13.73;100.00
79703;BME280;69172;52.352;5.006;2023-08-06T06:51:33;100655.59;;;13.64;100.00
79703;BME280;69172;52.352;5.006;2023-08-06T06:53:59;100661.91;;;13.71;100.00
79703;BME280;69172;52.352;5.006;2023-08-06T06:56:24;100668.00;;;13.73;100.00
79703;BME280;69172;52.352;5.006;2023-08-06T06:58:49;100659.81;;;13.62;100.00
79703;BME280;69172;52.352;5.006;2023-08-06T07:01:15;100662.50;;;13.64;100.00
79703;BME280;69172;52.352;5.006;2023-08-06T07:03:40;100661.34;;;13.57;100.00
79703;BME280;69172;52.352;5.006;2023-08-06T07:06:06;100660.28;;;13.52;100.00
79703;BME280;69172;52.352;5.006;2023-08-06T07:08:32;100662.88;;;13.52;100.00
79703;BME280;69172;52.352;5.006;2023-08-06T07:11:05;100656.88;;;13.53;100.00
79703;BME280;69172;52.352;5.006;2023-08-06T07:13:31;100656.94;;;13.55;100.00
79703;BME280;69172;52.352;5.006;2023-08-06T07:15:57;100655.03;;;13.51;100.00
79703;BME280;69172;52.352;5.006;2023-08-06T07:18:23;100649.88;;;13.51;100.00
79703;BME280;69172;52.352;5.006;2023-08-06T07:20:53;100660.41;;;13.55;100.00
79703;BME280;69172;52.352;5.006;2023-08-06T07:23:23;100662.59;;;13.67;100.00
79703;BME280;69172;52.352;5.006;2023-08-06T07:25:48;100652.97;;;13.63;100.00
79703;BME280;69172;52.352;5.006;2023-08-06T07:28:15;100663.44;;;13.66;100.00
79703;BME280;69172;52.352;5.006;2023-08-06T07:30:42;100655.97;;;13.73;100.00
79703;BME280;69172;52.352;5.006;2023-08-06T07:33:07;100665.56;;;13.76;100.00
79703;BME280;69172;52.352;5.006;2023-08-06T07:35:33;100658.56;;;13.73;100.00
79703;BME280;69172;52.352;5.006;2023-08-06T07:37:59;100669.72;;;13.72;100.00
79703;BME280;69172;52.352;5.006;2023-08-06T07:40:24;100656.06;;;13.75;100.00
79703;BME280;69172;52.352;5.006;2023-08-06T07:42:49;100663.91;;;13.78;100.00
79703;BME280;69172;52.352;5.006;2023-08-06T07:45:15;100678.66;;;13.81;100.00
79703;BME280;69172;52.352;5.006;2023-08-06T07:47:40;100678.09;;;13.88;100.00
79703;BME280;69172;52.352;5.006;2023-08-06T07:50:06;100691.44;;;13.98;100.00
79703;BME280;69172;52.352;5.006;2023-08-06T07:52:32;100688.09;;;14.01;100.00
79703;BME280;69172;52.352;5.006;2023-08-06T07:54:57;100685.47;;;13.99;100.00
79703;BME280;69172;52.352;5.006;2023-08-06T07:57:24;100685.38;;;13.98;100.00
79703;BME280;69172;52.352;5.006;2023-08-06T07:59:49;100697.91;;;14.09;100.00
79703;BME280;69172;52.352;5.006;2023-08-06T08:02:15;100698.94;;;14.13;100.00
79703;BME280;69172;52.352;5.006;2023-08-06T08:04:40;100700.53;;;14.11;100.00
79703;BME280;69172;52.352;5.006;2023-08-06T08:07:06;100704.19;;;14.16;100.00
79703;BME280;69172;52.352;5.006;2023-08-06T08:09:32;100702.50;;;14.16;100.00
79703;BME280;69172;52.352;5.006;2023-08-06T08:11:57;100702.63;;;14.19;100.00
79703;BME280;69172;52.352;5.006;2023-08-06T08:14:24;100703.50;;;14.20;100.00
79703;BME280;69172;52.352;5.006;2023-08-06T08:16:49;100703.78;;;14.27;100.00
79703;BME280;69172;52.352;5.006;2023-08-06T08:19:14;100705.56;;;14.28;100.00
79703;BME280;69172;52.352;5.006;2023-08-06T08:21:40;100707.22;;;14.26;100.00
79703;BME280;69172;52.352;5.006;2023-08-06T08:24:06;100701.09;;;14.24;100.00
79703;BME280;69172;52.352;5.006;2023-08-06T08:26:31;100700.28;;;14.25;100.00
79703;BME280;69172;52.352;5.006;2023-08-06T08:28:57;100712.56;;;14.31;100.00
79703;BME280;69172;52.352;5.006;2023-08-06T08:31:23;100697.69;;;14.25;100.00
79703;BME280;69172;52.352;5.006;2023-08-06T08:33:48;100703.66;;;14.24;100.00
79703;BME280;69172;52.352;5.006;2023-08-06T08:36:14;100702.50;;;14.16;100.00
79703;BME280;69172;52.352;5.006;2023-08-06T08:38:39;100694.84;;;14.19;100.00
79703;BME280;69172;52.352;5.006;2023-08-06T08:41:05;100698.50;;;14.24;100.00
79703;BME280;69172;52.352;5.006;2023-08-06T08:43:31;100716.97;;;14.32;100.00
79703;BME280;69172;52.352;5.006;2023-08-06T08:45:57;100713.38;;;14.30;100.00
79703;BME280;69172;52.352;5.006;2023-08-06T08:48:27;100710.78;;;14.30;100.00
79703;BME280;69172;52.352;5.006;2023-08-06T08:50:53;100713.19;;;14.25;100.00
79703;BME280;69172;52.352;5.006;2023-08-06T08:53:18;100716.97;;;14.32;100.00
79703;BME280;69172;52.352;5.006;2023-08-06T08:55:47;100714.38;;;14.32;100.00
79703;BME280;69172;52.352;5.006;2023-08-06T08:58:14;100724.88;;;14.37;100.00
79703;BME280;69172;52.352;5.006;2023-08-06T09:00:41;100737.22;;;14.44;100.00
79703;BME280;69172;52.352;5.006;2023-08-06T09:03:08;100732.81;;;14.41;100.00
79703;BME280;69172;52.352;5.006;2023-08-06T09:05:33;100723.84;;;14.32;100.00
79703;BME280;69172;52.352;5.006;2023-08-06T09:08:03;100730.88;;;14.36;100.00
79703;BME280;69172;52.352;5.006;2023-08-06T09:10:29;100727.47;;;14.37;100.00
79703;BME280;69172;52.352;5.006;2023-08-06T09:12:56;100734.59;;;14.42;100.00
79703;BME280;69172;52.352;5.006;2023-08-06T09:15:25;100734.34;;;14.36;100.00
79703;BME280;69172;52.352;5.006;2023-08-06T09:17:54;100733.47;;;14.36;100.00
79703;BME280;69172;52.352;5.006;2023-08-06T09:20:20;100737.50;;;14.29;100.00
79703;BME280;69172;52.352;5.006;2023-08-06T09:22:52;100738.25;;;14.26;100.00
79703;BME280;69172;52.352;5.006;2023-08-06T09:25:23;100753.25;;;14.35;100.00
79703;BME280;69172;52.352;5.006;2023-08-06T09:27:50;100734.72;;;14.24;100.00
79703;BME280;69172;52.352;5.006;2023-08-06T09:30:36;100737.28;;;14.24;100.00
79703;BME280;69172;52.352;5.006;2023-08-06T09:33:01;100755.75;;;14.32;100.00
79703;BME280;69172;52.352;5.006;2023-08-06T09:35:31;100754.75;;;14.30;100.00
79703;BME280;69172;52.352;5.006;2023-08-06T09:38:07;100765.25;;;14.33;100.00
79703;BME280;69172;52.352;5.006;2023-08-06T09:40:34;100771.56;;;14.40;100.00
79703;BME280;69172;52.352;5.006;2023-08-06T09:43:00;100782.84;;;14.42;100.00
79703;BME280;69172;52.352;5.006;2023-08-06T09:45:36;100781.84;;;14.38;100.00
79703;BME280;69172;52.352;5.006;2023-08-06T09:48:04;100787.03;;;14.38;100.00
79703;BME280;69172;52.352;5.006;2023-08-06T09:50:31;100791.44;;;14.41;100.00
79703;BME280;69172;52.352;5.006;2023-08-06T09:52:58;100792.16;;;14.37;100.00
79703;BME280;69172;52.352;5.006;2023-08-06T09:55:24;100801.78;;;14.41;100.00
79703;BME280;69172;52.352;5.006;2023-08-06T09:57:51;100797.63;;;14.44;100.00
79703;BME280;69172;52.352;5.006;2023-08-06T10:00:18;100790.63;;;14.42;100.00
79703;BME280;69172;52.352;5.006;2023-08-06T10:02:43;100793.22;;;14.42;100.00
79703;BME280;69172;52.352;5.006;2023-08-06T10:05:10;100792.31;;;14.41;100.00
79703;BME280;69172;52.352;5.006;2023-08-06T10:07:36;100793.34;;;14.45;100.00
79703;BME280;69172;52.352;5.006;2023-08-06T10:10:02;100789.81;;;14.43;100.00
79703;BME280;69172;52.352;5.006;2023-08-06T10:12:32;100796.69;;;14.42;100.00
79703;BME280;69172;52.352;5.006;2023-08-06T10:15:02;100787.09;;;14.40;100.00
79703;BME280;69172;52.352;5.006;2023-08-06T10:17:31;100796.59;;;14.41;100.00
79703;BME280;69172;52.352;5.006;2023-08-06T10:19:58;100800.22;;;14.44;100.00
79703;BME280;69172;52.352;5.006;2023-08-06T10:22:24;100791.00;;;14.51;100.00
79703;BME280;69172;52.352;5.006;2023-08-06T10:24:51;100792.69;;;14.50;100.00
79703;BME280;69172;52.352;5.006;2023-08-06T10:27:31;100794.38;;;14.50;100.00
79703;BME280;69172;52.352;5.006;2023-08-06T10:32:53;100803.28;;;14.56;100.00
79703;BME280;69172;52.352;5.006;2023-08-06T10:38:12;100805.22;;;14.62;100.00
79703;BME280;69172;52.352;5.006;2023-08-06T10:40:48;100801.81;;;14.63;100.00
79703;BME280;69172;52.352;5.006;2023-08-06T10:46:01;100802.72;;;14.65;100.00
79703;BME280;69172;52.352;5.006;2023-08-06T10:48:37;100812.44;;;14.70;100.00
79703;BME280;69172;52.352;5.006;2023-08-06T10:51:06;100802.00;;;14.67;100.00
79703;BME280;69172;52.352;5.006;2023-08-06T10:53:31;100804.00;;;14.74;100.00
79703;BME280;69172;52.352;5.006;2023-08-06T10:55:57;100826.94;;;14.87;100.00
79703;BME280;69172;52.352;5.006;2023-08-06T10:58:23;100823.94;;;14.77;100.00
79703;BME280;69172;52.352;5.006;2023-08-06T11:00:48;100819.13;;;14.86;100.00
79703;BME280;69172;52.352;5.006;2023-08-06T11:03:14;100807.72;;;14.81;100.00
79703;BME280;69172;52.352;5.006;2023-08-06T11:05:40;100822.75;;;14.91;100.00
79703;BME280;69172;52.352;5.006;2023-08-06T11:08:05;100812.44;;;14.93;100.00
79703;BME280;69172;52.352;5.006;2023-08-06T11:10:34;100829.81;;;14.95;100.00
79703;BME280;69172;52.352;5.006;2023-08-06T11:13:03;100829.03;;;14.98;100.00
79703;BME280;69172;52.352;5.006;2023-08-06T11:15:30;100822.09;;;14.97;100.00
79703;BME280;69172;52.352;5.006;2023-08-06T11:17:56;100815.75;;;14.88;100.00
79703;BME280;69172;52.352;5.006;2023-08-06T11:20:22;100816.03;;;14.96;100.00
79703;BME280;69172;52.352;5.006;2023-08-06T11:22:48;100813.72;;;15.04;100.00
79703;BME280;69172;52.352;5.006;2023-08-06T11:25:13;100817.38;;;15.09;100.00
79703;BME280;69172;52.352;5.006;2023-08-06T11:27:38;100841.81;;;15.15;100.00
79703;BME280;69172;52.352;5.006;2023-08-06T11:30:04;100836.75;;;15.18;100.00
79703;BME280;69172;52.352;5.006;2023-08-06T11:32:30;100832.59;;;15.23;100.00
79703;BME280;69172;52.352;5.006;2023-08-06T11:34:56;100827.56;;;15.28;100.00
79703;BME280;69172;52.352;5.006;2023-08-06T11:37:22;100826.69;;;15.27;99.71
79703;BME280;69172;52.352;5.006;2023-08-06T11:39:50;100831.97;;;15.30;99.83
79703;BME280;69172;52.352;5.006;2023-08-06T11:42:15;100830.50;;;15.37;100.00
79703;BME280;69172;52.352;5.006;2023-08-06T11:44:41;100839.44;;;15.45;99.49
79703;BME280;69172;52.352;5.006;2023-08-06T11:47:15;100838.97;;;15.55;98.96
79703;BME280;69172;52.352;5.006;2023-08-06T11:49:42;100844.38;;;15.61;98.88
79703;BME280;69172;52.352;5.006;2023-08-06T11:52:25;100830.59;;;15.62;98.35
79703;BME280;69172;52.352;5.006;2023-08-06T12:07:41;100838.25;;;16.35;95.34
79703;BME280;69172;52.352;5.006;2023-08-06T16:06:40;101114.13;;;15.43;83.48
79703;BME280;69172;52.352;5.006;2023-08-06T16:13:25;101138.13;;;15.81;79.56
79703;BME280;69172;52.352;5.006;2023-08-06T16:15:51;101120.91;;;16.05;77.86
79703;BME280;69172;52.352;5.006;2023-08-06T16:18:16;101171.19;;;16.31;76.73
79703;BME280;69172;52.352;5.006;2023-08-06T16:20:43;101126.63;;;16.42;75.48
79703;BME280;69172;52.352;5.006;2023-08-06T16:23:09;101156.34;;;16.27;75.77
79703;BME280;69172;52.352;5.006;2023-08-06T16:25:38;101151.31;;;16.09;76.75
79703;BME280;69172;52.352;5.006;2023-08-06T16:28:04;101155.66;;;15.86;78.26
79703;BME280;69172;52.352;5.006;2023-08-06T16:30:30;101163.25;;;15.40;79.59
79703;BME280;69172;52.352;5.006;2023-08-06T16:32:58;101169.56;;;15.26;81.92
79703;BME280;69172;52.352;5.006;2023-08-06T16:35:24;101161.47;;;15.19;83.79
79703;BME280;69172;52.352;5.006;2023-08-06T16:37:51;101169.31;;;15.20;85.74
79703;BME280;69172;52.352;5.006;2023-08-06T16:40:17;101163.38;;;14.83;89.86
79703;BME280;69172;52.352;5.006;2023-08-06T16:42:42;101172.09;;;14.66;93.80
79703;BME280;69172;52.352;5.006;2023-08-06T16:45:08;101154.72;;;14.63;93.37
79703;BME280;69172;52.352;5.006;2023-08-06T16:47:33;101195.09;;;14.41;93.46
79703;BME280;69172;52.352;5.006;2023-08-06T16:49:59;101181.41;;;14.43;94.43
79703;BME280;69172;52.352;5.006;2023-08-06T16:52:24;101174.03;;;14.51;94.25
79703;BME280;69172;52.352;5.006;2023-08-06T16:54:50;101182.25;;;14.61;94.10
79703;BME280;69172;52.352;5.006;2023-08-06T16:57:15;101185.38;;;14.73;92.16
79703;BME280;69172;52.352;5.006;2023-08-06T16:59:41;101182.59;;;14.88;89.30
79703;BME280;69172;52.352;5.006;2023-08-06T17:02:06;101169.00;;;15.13;88.08
79703;BME280;69172;52.352;5.006;2023-08-06T17:04:32;101196.03;;;15.19;85.54
79703;BME280;69172;52.352;5.006;2023-08-06T17:06:58;101185.38;;;15.32;84.62